createdAt,value
2023-12-29T00:04:35.212Z,5.30
2023-12-29T00:09:42.621Z,5.00
2023-12-29T00:14:45.847Z,5.50
2023-12-29T00:19:48.692Z,5.50
2023-12-29T00:24:51.787Z,5.50
2023-12-29T00:29:54.491Z,5.20
2023-12-29T00:34:57.456Z,5.30
2023-12-29T00:40:00.491Z,5.60
2023-12-29T00:45:03.808Z,5.90
2023-12-29T00:50:07.081Z,6.00
2023-12-29T00:55:10.226Z,5.10
2023-12-29T01:00:14.342Z,5.20
2023-12-29T01:05:21.056Z,5.70
2023-12-29T01:10:24.243Z,5.60
2023-12-29T01:15:27.135Z,5.20
2023-12-29T01:20:29.986Z,5.60
2023-12-29T01:25:32.807Z,5.70
2023-12-29T01:30:35.642Z,6.30
2023-12-29T01:35:38.472Z,6.70
2023-12-29T01:40:47.905Z,5.50
2023-12-29T01:45:55.929Z,6.30
2023-12-29T01:51:01.186Z,5.80
2023-12-29T01:56:04.230Z,6.00
2023-12-29T02:01:08.734Z,5.70
2023-12-29T02:06:12.026Z,6.60
2023-12-29T02:11:15.128Z,6.60
2023-12-29T02:16:30.734Z,5.80
2023-12-29T02:21:33.454Z,6.40
2023-12-29T02:26:37.663Z,5.40
2023-12-29T02:31:45.689Z,6.50
2023-12-29T02:36:51.757Z,5.70
2023-12-29T02:41:54.728Z,6.00
2023-12-29T02:46:57.540Z,7.30
2023-12-29T02:52:00.291Z,6.70
2023-12-29T02:57:02.988Z,4.70
2023-12-29T03:02:05.772Z,6.30
2023-12-29T03:07:09.304Z,5.20
2023-12-29T03:12:12.174Z,5.70
2023-12-29T03:17:15.007Z,5.90
2023-12-29T03:22:17.757Z,5.90
2023-12-29T03:27:20.646Z,5.00
2023-12-29T03:32:23.445Z,5.20
2023-12-29T03:37:26.436Z,5.20
2023-12-29T03:42:29.166Z,6.20
2023-12-29T03:47:32.914Z,5.40
2023-12-29T03:52:35.748Z,6.60
2023-12-29T03:57:38.500Z,6.30
2023-12-29T04:02:42.068Z,5.80
2023-12-29T04:07:44.886Z,6.20
2023-12-29T04:12:47.823Z,5.50
2023-12-29T04:17:50.689Z,6.90
2023-12-29T04:22:53.967Z,5.60
2023-12-29T04:27:56.870Z,6.80
2023-12-29T04:32:59.907Z,5.70
2023-12-29T04:38:03.131Z,6.20
2023-12-29T04:43:06.399Z,6.20
2023-12-29T04:48:09.287Z,6.20
2023-12-29T04:53:12.507Z,5.90
2023-12-29T04:58:15.565Z,6.20
2023-12-29T05:03:18.387Z,6.00
2023-12-29T05:08:21.349Z,5.40
2023-12-29T05:13:24.042Z,5.50
2023-12-29T05:18:28.109Z,6.30
2023-12-29T05:23:30.975Z,5.50
2023-12-29T05:28:33.694Z,6.70
2023-12-29T05:33:37.094Z,5.50
2023-12-29T05:38:41.158Z,5.90
2023-12-29T05:43:43.844Z,5.70
2023-12-29T05:48:47.996Z,6.10
2023-12-29T05:53:50.822Z,6.00
2023-12-29T05:58:53.698Z,5.20
2023-12-29T06:03:56.556Z,5.80
2023-12-29T06:08:59.334Z,5.60
2023-12-29T06:14:02.172Z,5.30
2023-12-29T06:19:05.103Z,6.40
2023-12-29T06:24:07.991Z,6.10
2023-12-29T06:29:11.497Z,6.00
2023-12-29T06:34:14.342Z,6.20
2023-12-29T06:39:17.315Z,5.70
2023-12-29T06:44:20.359Z,6.40
2023-12-29T06:49:23.168Z,6.40
2023-12-29T06:54:25.933Z,5.40
2023-12-29T06:59:28.672Z,5.30
2023-12-29T07:04:31.437Z,5.80
2023-12-29T07:09:34.181Z,5.40
2023-12-29T07:14:37.020Z,6.70
2023-12-29T07:19:39.917Z,5.70
2023-12-29T07:24:42.776Z,6.00
2023-12-29T07:29:45.629Z,5.80
2023-12-29T07:34:49.816Z,5.50
2023-12-29T07:39:53.031Z,6.50
2023-12-29T07:44:57.607Z,5.10
2023-12-29T07:50:00.728Z,5.50
2023-12-29T07:55:03.814Z,5.80
2023-12-29T08:00:07.788Z,4.70
2023-12-29T08:05:10.551Z,5.90
2023-12-29T08:10:13.444Z,4.50
2023-12-29T08:15:16.229Z,6.60
2023-12-29T08:20:18.943Z,6.10
2023-12-29T08:25:21.717Z,5.60
2023-12-29T08:30:24.555Z,6.30
2023-12-29T08:35:27.423Z,5.40
2023-12-29T08:40:30.366Z,6.90
2023-12-29T08:45:33.379Z,5.20
2023-12-29T08:50:36.231Z,5.10
2023-12-29T08:55:39.315Z,5.10
2023-12-29T09:00:42.128Z,5.90
2023-12-29T09:05:44.944Z,6.70
2023-12-29T09:10:47.718Z,6.10
2023-12-29T09:15:50.523Z,5.50
2023-12-29T09:20:53.377Z,5.10
2023-12-29T09:25:56.274Z,5.70
2023-12-29T09:30:59.272Z,5.00
2023-12-29T09:36:02.112Z,3.90
2023-12-29T09:41:14.955Z,4.20
2023-12-29T09:46:19.702Z,4.60
2023-12-29T09:51:25.232Z,4.80
2023-12-29T09:56:28.376Z,3.90
2023-12-29T10:01:32.385Z,5.70
2023-12-29T10:06:37.959Z,5.20
2023-12-29T10:11:43.299Z,5.70
2023-12-29T10:16:56.032Z,4.70
2023-12-29T10:22:08.659Z,5.40
2023-12-29T10:27:12.024Z,4.30
2023-12-29T10:32:14.832Z,6.10
2023-12-29T10:37:24.040Z,5.60
2023-12-29T10:42:26.916Z,11.20
2023-12-29T10:47:29.670Z,7.40
2023-12-29T10:52:33.855Z,4.90
2023-12-29T10:57:37.727Z,5.90
2023-12-29T11:02:41.760Z,5.00
2023-12-29T11:07:44.643Z,5.10
2023-12-29T11:12:49.333Z,3.80
2023-12-29T11:17:54.624Z,4.10
2023-12-29T11:22:57.523Z,3.60
2023-12-29T11:28:01.682Z,3.90
2023-12-29T11:33:09.875Z,4.00
2023-12-29T11:38:33.863Z,4.00
2023-12-29T11:43:37.253Z,4.50
2023-12-29T11:48:59.195Z,3.90
2023-12-29T11:54:05.524Z,4.80
2023-12-29T11:59:16.005Z,4.10
2023-12-29T12:04:46.952Z,3.40
2023-12-29T12:09:56.440Z,3.50
2023-12-29T12:14:59.391Z,3.90
2023-12-29T12:20:12.568Z,6.30
2023-12-29T12:25:16.273Z,4.80
2023-12-29T12:30:20.137Z,4.30
2023-12-29T12:35:24.043Z,5.10
2023-12-29T12:40:29.960Z,4.70
2023-12-29T12:45:44.320Z,4.90
2023-12-29T12:50:48.972Z,5.00
2023-12-29T12:55:53.689Z,5.90
2023-12-29T13:00:58.968Z,5.80
2023-12-29T13:06:02.714Z,4.90
2023-12-29T13:11:06.810Z,4.10
2023-12-29T13:16:10.276Z,5.10
2023-12-29T13:21:13.928Z,6.60
2023-12-29T13:26:19.839Z,5.40
2023-12-29T13:31:22.980Z,5.60
2023-12-29T13:36:44.911Z,6.20
2023-12-29T13:41:48.484Z,4.40
2023-12-29T13:46:52.575Z,4.10
2023-12-29T13:51:55.608Z,5.40
2023-12-29T13:56:58.323Z,5.70
2023-12-29T14:02:20.671Z,4.20
2023-12-29T14:07:26.370Z,4.70
2023-12-29T14:12:29.165Z,5.50
2023-12-29T14:17:32.191Z,3.00
2023-12-29T14:22:35.113Z,4.40
2023-12-29T14:27:40.486Z,4.50
2023-12-29T14:32:43.403Z,3.90
2023-12-29T14:37:46.366Z,5.10
2023-12-29T14:42:49.209Z,4.60
2023-12-29T14:47:52.046Z,5.40
2023-12-29T14:52:54.936Z,4.20
2023-12-29T14:57:57.932Z,4.80
2023-12-29T15:03:00.811Z,4.50
2023-12-29T15:08:05.587Z,4.10
2023-12-29T15:13:08.761Z,4.20
2023-12-29T15:18:11.553Z,4.60
2023-12-29T15:23:14.381Z,5.90
2023-12-29T15:28:20.651Z,6.00
2023-12-29T15:33:23.785Z,5.10
2023-12-29T15:38:26.703Z,4.20
2023-12-29T15:43:30.807Z,3.50
2023-12-29T15:48:33.679Z,3.90
2023-12-29T15:53:36.856Z,4.50
2023-12-29T15:58:39.631Z,4.30
2023-12-29T16:03:42.583Z,5.30
2023-12-29T16:08:45.599Z,8.40
2023-12-29T16:13:48.644Z,8.40
2023-12-29T16:18:51.565Z,11.20
2023-12-29T16:23:54.526Z,14.10
2023-12-29T16:28:57.276Z,10.10
2023-12-29T16:34:00.943Z,3.90
2023-12-29T16:39:04.826Z,4.10
2023-12-29T16:44:08.878Z,3.20
2023-12-29T16:49:11.706Z,4.00
2023-12-29T16:54:14.721Z,3.60
2023-12-29T16:59:18.146Z,3.50
2023-12-29T17:04:21.174Z,3.60
2023-12-29T17:09:24.043Z,3.40
2023-12-29T17:14:26.768Z,15.00
2023-12-29T17:19:29.655Z,12.20
2023-12-29T17:24:35.055Z,17.10
2023-12-29T17:29:39.830Z,7.80
2023-12-29T17:34:43.172Z,5.80
2023-12-29T17:39:46.529Z,6.20
2023-12-29T17:44:49.774Z,9.70
2023-12-29T17:49:52.589Z,4.90
2023-12-29T17:54:57.172Z,6.70
2023-12-29T18:00:00.658Z,4.50
2023-12-29T18:05:04.676Z,3.50
2023-12-29T18:10:10.075Z,4.30
2023-12-29T18:15:15.567Z,4.10
2023-12-29T18:20:18.679Z,5.10
2023-12-29T18:25:21.557Z,5.40
2023-12-29T18:30:24.439Z,3.70
2023-12-29T18:35:27.274Z,4.00
2023-12-29T18:40:32.142Z,3.60
2023-12-29T18:45:35.128Z,3.40
2023-12-29T18:50:37.975Z,4.40
2023-12-29T18:55:45.607Z,4.80
2023-12-29T19:00:52.172Z,7.00
2023-12-29T19:05:55.134Z,3.10
2023-12-29T19:10:57.840Z,4.00
2023-12-29T19:16:02.998Z,3.50
2023-12-29T19:21:06.301Z,2.60
2023-12-29T19:26:18.458Z,2.90
2023-12-29T19:31:21.524Z,3.60
2023-12-29T19:36:24.460Z,4.70
2023-12-29T19:41:35.434Z,2.60
2023-12-29T19:46:43.075Z,3.00
2023-12-29T19:51:45.971Z,4.40
2023-12-29T19:56:52.659Z,2.60
2023-12-29T20:01:55.653Z,3.00
2023-12-29T20:06:58.452Z,2.50
2023-12-29T20:12:01.182Z,3.30
2023-12-29T20:17:04.138Z,3.10
2023-12-29T20:22:06.906Z,3.20
2023-12-29T20:27:09.781Z,4.00
2023-12-29T20:32:12.939Z,3.80
2023-12-29T20:37:15.771Z,3.00
2023-12-29T20:42:18.616Z,3.20
2023-12-29T20:47:21.743Z,3.40
2023-12-29T20:52:24.646Z,3.20
2023-12-29T20:57:27.562Z,3.70
2023-12-29T21:02:30.277Z,3.20
2023-12-29T21:07:33.103Z,3.00
2023-12-29T21:12:35.933Z,2.30
2023-12-29T21:17:38.699Z,3.30
2023-12-29T21:22:44.095Z,2.60
2023-12-29T21:27:47.640Z,2.50
2023-12-29T21:32:50.507Z,2.20
2023-12-29T21:37:53.212Z,2.20
2023-12-29T21:42:56.030Z,2.30
2023-12-29T21:47:58.917Z,2.80
2023-12-29T21:53:02.040Z,2.00
2023-12-29T21:58:05.468Z,2.40
2023-12-29T22:03:08.231Z,2.30
2023-12-29T22:08:11.372Z,2.70
2023-12-29T22:13:14.091Z,2.80
2023-12-29T22:18:16.903Z,2.10
2023-12-29T22:23:19.740Z,2.50
2023-12-29T22:28:23.126Z,3.10
2023-12-29T22:33:25.970Z,2.60
2023-12-29T22:38:28.717Z,2.80
2023-12-29T22:43:31.459Z,2.60
2023-12-29T22:48:34.310Z,3.20
2023-12-29T22:53:37.557Z,3.00
2023-12-29T22:58:40.293Z,2.90
2023-12-29T23:03:43.107Z,3.40
2023-12-29T23:08:46.028Z,3.90
2023-12-29T23:13:48.870Z,4.30
2023-12-29T23:18:53.227Z,4.50
2023-12-29T23:23:56.046Z,4.10
2023-12-29T23:28:58.934Z,4.50
2023-12-29T23:34:01.829Z,4.60
2023-12-29T23:39:04.654Z,4.40
2023-12-29T23:44:08.573Z,5.60
2023-12-29T23:49:11.442Z,4.70
2023-12-29T23:54:14.873Z,4.40
2023-12-29T23:59:18.296Z,4.70
